Time;durP1;ratioP1;P1;durP2;ratioP2;P2;SDS_P1;SDS_P2;PMS_P1;PMS_P2;Temp;Humidity;BMP_temperature;BMP_pressure;BME280_temperature;BME280_humidity;BME280_pressure;Samples;Min_cycle;Max_cycle;Signal;HPM_P1;HPM_P2
2022/07/11 00:01:26;;;;;;;1.42;1.00;;;;;;;;;;6278493;22;20148;-91
2022/07/11 00:04:03;;;;;;;1.30;0.88;;;;;;;;;;6278498;22;20171;-91
2022/07/11 00:06:37;;;;;;;1.10;1.00;;;;;;;;;;6279432;22;20164;-91
2022/07/11 00:09:04;;;;;;;1.73;1.17;;;;;;;;;;6279178;22;20245;-91
2022/07/11 00:11:45;;;;;;;;;;;;;;;;;;;;;
2022/07/11 00:14:16;;;;;;;1.67;1.20;;;;;;;;;;6278722;22;20182;-91
2022/07/11 00:16:45;;;;;;;1.58;1.17;;;;;;;;;;6278540;22;20168;-91
2022/07/11 00:19:16;;;;;;;1.67;1.13;;;;;;;;;;6277573;22;20198;-91
2022/07/11 00:21:45;;;;;;;0.90;0.90;;;;;;;;;;6279245;22;20176;-91
2022/07/11 00:24:24;;;;;;;1.65;0.80;;;;;;;;;;6280485;22;20176;-91
2022/07/11 00:26:54;;;;;;;1.35;1.00;;;;;;;;;;6279712;22;20172;-91
2022/07/11 00:29:38;;;;;;;1.15;1.00;;;;;;;;;;6279797;22;20194;-91
2022/07/11 00:32:13;;;;;;;1.60;1.20;;;;;;;;;;6280302;22;20243;-92
2022/07/11 00:34:54;;;;;;;1.00;0.90;;;;;;;;;;6279902;22;20229;-91
2022/07/11 00:37:34;;;;;;;1.33;1.20;;;;;;;;;;6281765;22;20266;-91
2022/07/11 00:40:08;;;;;;;0.80;0.80;;;;;;;;;;6281610;22;20167;-91
2022/07/11 00:42:43;;;;;;;1.38;1.08;;;;;;;;;;6282851;22;20171;-91
2022/07/11 00:45:13;;;;;;;0.90;0.90;;;;;;;;;;6280734;22;20164;-90
2022/07/11 00:47:41;;;;;;;1.15;1.05;;;;;;;;;;6277912;22;20215;-91
2022/07/11 00:50:12;;;;;;;0.82;0.82;;;;;;;;;;6277010;22;20199;-91
2022/07/11 00:52:43;;;;;;;0.80;0.80;;;;;;;;;;6278106;22;20170;-90
2022/07/11 00:55:11;;;;;;;1.27;1.10;;;;;;;;;;6278132;22;20225;-91
2022/07/11 00:57:41;;;;;;;1.88;1.10;;;;;;;;;;6277422;22;20199;-90
2022/07/11 01:00:11;;;;;;;1.25;1.10;;;;;;;;;;6279076;22;20175;-91
2022/07/11 01:02:39;;;;;;;1.05;1.00;;;;;;;;;;6280202;22;20168;-91
2022/07/11 01:05:20;;;;;;;1.67;0.93;;;;;;;;;;6280344;22;20210;-91
2022/07/11 01:07:58;;;;;;;1.10;1.08;;;;;;;;;;6280104;22;20191;-91
2022/07/11 01:10:29;;;;;;;1.17;1.08;;;;;;;;;;6279502;22;20314;-91
2022/07/11 01:13:03;;;;;;;1.20;1.08;;;;;;;;;;6278297;22;20171;-91
2022/07/11 01:15:35;;;;;;;0.88;0.88;;;;;;;;;;6279078;22;20271;-90
2022/07/11 01:18:09;;;;;;;1.02;0.93;;;;;;;;;;6277550;22;20196;-91
2022/07/11 01:20:54;;;;;;;1.27;1.10;;;;;;;;;;6278864;22;20191;-91
2022/07/11 01:23:23;;;;;;;1.10;1.00;;;;;;;;;;6278178;22;20198;-90
2022/07/11 01:26:04;;;;;;;1.40;1.20;;;;;;;;;;6278245;22;20226;-91
2022/07/11 01:28:31;;;;;;;1.25;1.10;;;;;;;;;;6277040;22;20687;-91
2022/07/11 01:31:13;;;;;;;0.82;0.82;;;;;;;;;;6278042;22;20188;-90
2022/07/11 01:36:26;;;;;;;1.25;0.90;;;;;;;;;;6275520;22;20179;-91
2022/07/11 01:39:03;;;;;;;1.23;1.13;;;;;;;;;;6277917;22;20203;-91
2022/07/11 01:41:36;;;;;;;0.98;0.90;;;;;;;;;;6277835;22;20163;-91
2022/07/11 01:44:18;;;;;;;1.23;1.08;;;;;;;;;;6280752;22;20168;-90
2022/07/11 01:46:53;;;;;;;0.77;0.77;;;;;;;;;;6283462;22;20172;-91
2022/07/11 01:49:29;;;;;;;1.30;1.20;;;;;;;;;;6277273;22;20201;-91
2022/07/11 01:51:59;;;;;;;1.58;1.05;;;;;;;;;;6279109;22;20526;-91
2022/07/11 01:54:38;;;;;;;2.75;0.95;;;;;;;;;;6278949;22;20168;-91
2022/07/11 01:57:13;;;;;;;1.00;0.90;;;;;;;;;;6279714;22;20183;-91
2022/07/11 01:59:44;;;;;;;1.80;1.10;;;;;;;;;;6287786;22;20172;-91
2022/07/11 02:02:13;;;;;;;1.65;1.20;;;;;;;;;;6287319;22;20170;-91
2022/07/11 02:04:46;;;;;;;1.13;1.02;;;;;;;;;;6286204;22;20172;-89
2022/07/11 02:08:11;;;;;;;1.20;1.10;;;;;;;;;;6288525;22;20172;-91
2022/07/11 02:13:19;;;;;;;0.90;0.90;;;;;;;;;;6291432;22;20175;-91
2022/07/11 02:15:55;;;;;;;2.03;1.20;;;;;;;;;;6288896;22;20175;-90
2022/07/11 02:21:27;;;;;;;1.73;0.98;;;;;;;;;;6297875;22;20198;-91
2022/07/11 02:24:21;;;;;;;;;;;;;;;;;;;;;
2022/07/11 02:26:57;;;;;;;1.15;1.05;;;;;;;;;;6289897;22;20172;-91
2022/07/11 02:32:31;;;;;;;1.13;1.00;;;;;;;;;;6287468;22;20188;-91
2022/07/11 02:37:48;;;;;;;1.27;1.17;;;;;;;;;;6291448;22;20184;-90
2022/07/11 02:49:20;;;;;;;1.10;1.00;;;;;;;;;;6275964;22;20205;-91
2022/07/11 02:51:53;;;;;;;1.10;1.00;;;;;;;;;;6277624;22;20513;-90
2022/07/11 02:54:23;;;;;;;1.17;1.08;;;;;;;;;;6278068;22;20168;-91
2022/07/11 02:56:55;;;;;;;1.15;1.05;;;;;;;;;;6278042;22;20172;-91
2022/07/11 02:59:27;;;;;;;1.08;1.08;;;;;;;;;;6278475;22;20196;-91
2022/07/11 03:01:55;;;;;;;1.50;1.00;;;;;;;;;;6280465;22;20172;-91
2022/07/11 03:04:27;;;;;;;0.95;0.95;;;;;;;;;;6280592;22;20175;-90
2022/07/11 03:07:05;;;;;;;1.10;1.10;;;;;;;;;;6280241;22;20248;-91
2022/07/11 03:12:15;;;;;;;1.40;1.08;;;;;;;;;;6279800;22;20202;-91
2022/07/11 03:15:02;;;;;;;1.13;1.02;;;;;;;;;;6278131;22;20175;-90
2022/07/11 03:17:30;;;;;;;1.30;1.20;;;;;;;;;;6277547;22;20188;-91
2022/07/11 03:20:00;;;;;;;1.20;1.10;;;;;;;;;;6277858;22;20243;-91
2022/07/11 03:22:33;;;;;;;1.00;0.90;;;;;;;;;;6278103;22;20164;-91
2022/07/11 03:31:26;;;;;;;1.23;1.08;;;;;;;;;;6238516;22;20270;-92
2022/07/11 03:36:58;;;;;;;1.20;1.10;;;;;;;;;;6267056;22;20171;-91
2022/07/11 03:42:29;;;;;;;1.25;1.08;;;;;;;;;;6251992;22;20207;-90
2022/07/11 03:44:59;;;;;;;1.27;1.15;;;;;;;;;;6276790;22;20221;-90
2022/07/11 03:47:29;;;;;;;1.30;1.20;;;;;;;;;;6276359;22;20195;-90
2022/07/11 03:49:58;;;;;;;1.00;1.00;;;;;;;;;;6276990;22;20211;-91
2022/07/11 03:52:26;;;;;;;1.33;1.23;;;;;;;;;;6277058;22;20195;-90
2022/07/11 04:01:10;;;;;;;1.20;1.10;;;;;;;;;;6233576;22;20200;-90
2022/07/11 04:06:42;;;;;;;1.65;1.30;;;;;;;;;;6237714;22;20222;-91
2022/07/11 04:09:13;;;;;;;2.03;1.27;;;;;;;;;;6277282;22;20271;-91
2022/07/11 04:11:56;;;;;;;1.10;1.00;;;;;;;;;;6278527;22;20242;-91
2022/07/11 04:14:33;;;;;;;1.17;1.10;;;;;;;;;;6279756;22;20168;-90
2022/07/11 04:17:13;;;;;;;1.02;1.00;;;;;;;;;;6279388;22;20178;-89
2022/07/11 04:19:52;;;;;;;;;;;;;;;;;;;;;
2022/07/11 04:22:49;;;;;;;1.35;1.25;;;;;;;;;;6281293;22;20236;-91
2022/07/11 04:25:25;;;;;;;1.15;1.10;;;;;;;;;;6282121;22;20176;-90
2022/07/11 04:28:20;;;;;;;1.38;1.20;;;;;;;;;;6281583;22;20191;-90
2022/07/11 04:42:21;;;;;;;1.02;1.02;;;;;;;;;;6237382;22;20204;-90
2022/07/11 04:44:49;;;;;;;1.92;1.00;;;;;;;;;;6246124;23;20173;-91
2022/07/11 04:47:19;;;;;;;3.53;1.30;;;;;;;;;;6248853;22;20176;-94
2022/07/11 05:04:58;;;;;;;1999.90;995.28;;;;;;;;;;6221150;22;20215;-91
2022/07/11 05:07:26;;;;;;;800.20;270.63;;;;;;;;;;6246170;22;20189;-90
2022/07/11 05:09:53;;;;;;;175.65;54.40;;;;;;;;;;6246627;23;20247;-90
2022/07/11 05:12:23;;;;;;;194.38;51.30;;;;;;;;;;6249343;23;20193;-91
2022/07/11 05:14:50;;;;;;;234.77;64.95;;;;;;;;;;6246725;23;20199;-91
2022/07/11 05:17:18;;;;;;;247.32;69.22;;;;;;;;;;6246148;22;20173;-92
2022/07/11 05:19:48;;;;;;;230.88;64.60;;;;;;;;;;6246914;23;20251;-92
2022/07/11 05:22:20;;;;;;;209.75;57.85;;;;;;;;;;6246334;23;20223;-91
2022/07/11 05:24:47;;;;;;;144.15;41.13;;;;;;;;;;6246076;23;20175;-90
2022/07/11 05:30:01;;;;;;;77.97;23.67;;;;;;;;;;6245330;23;20185;-90
2022/07/11 05:32:51;;;;;;;75.43;24.00;;;;;;;;;;6245508;23;20185;-90
2022/07/11 05:35:21;;;;;;;90.07;28.63;;;;;;;;;;6247217;23;20170;-92
2022/07/11 05:37:50;;;;;;;100.32;29.52;;;;;;;;;;6249256;22;20192;-93
2022/07/11 05:40:18;;;;;;;85.22;27.40;;;;;;;;;;6245748;23;20168;-93
2022/07/11 05:42:47;;;;;;;87.40;26.08;;;;;;;;;;6245813;23;20165;-92
2022/07/11 05:45:17;;;;;;;79.18;26.00;;;;;;;;;;6245823;23;20169;-93
2022/07/11 05:47:47;;;;;;;66.97;22.45;;;;;;;;;;6245483;22;20284;-91
2022/07/11 05:50:14;;;;;;;63.78;21.15;;;;;;;;;;6245637;23;20185;-92
2022/07/11 05:52:42;;;;;;;59.03;19.08;;;;;;;;;;6245380;23;20234;-92
2022/07/11 05:55:14;;;;;;;49.80;16.75;;;;;;;;;;6245416;23;20203;-92
2022/07/11 05:57:42;;;;;;;50.28;16.17;;;;;;;;;;6244941;22;20192;-93
2022/07/11 06:00:10;;;;;;;44.67;15.32;;;;;;;;;;6245511;23;20172;-90
2022/07/11 06:02:37;;;;;;;45.08;15.55;;;;;;;;;;6246922;23;20199;-92
2022/07/11 06:05:14;;;;;;;45.55;14.38;;;;;;;;;;6245866;23;20250;-92
2022/07/11 06:10:46;;;;;;;36.88;12.45;;;;;;;;;;6247188;23;20156;-90
2022/07/11 06:13:14;;;;;;;38.20;11.95;;;;;;;;;;6246541;23;20196;-89
2022/07/11 06:15:50;;;;;;;39.25;12.23;;;;;;;;;;6248060;23;20188;-90
2022/07/11 06:18:28;;;;;;;31.67;11.05;;;;;;;;;;6247497;22;20192;-90
2022/07/11 06:21:14;;;;;;;35.47;10.88;;;;;;;;;;6246801;23;20176;-90
2022/07/11 06:23:47;;;;;;;37.85;11.70;;;;;;;;;;6247187;23;20172;-92
2022/07/11 06:26:33;;;;;;;29.38;10.82;;;;;;;;;;6247585;23;20169;-89
2022/07/11 06:29:22;;;;;;;29.27;9.93;;;;;;;;;;6246435;22;20204;-91
2022/07/11 06:32:25;;;;;;;;;;;;;;;;;;;;;
2022/07/11 06:34:58;;;;;;;30.42;9.40;;;;;;;;;;6246461;23;20180;-91
2022/07/11 06:37:30;;;;;;;29.23;9.85;;;;;;;;;;6246369;22;20199;-92
2022/07/11 06:42:47;;;;;;;24.77;9.27;;;;;;;;;;6243249;23;20199;-91
2022/07/11 06:45:14;;;;;;;27.98;9.18;;;;;;;;;;6246840;23;20243;-90
2022/07/11 06:47:45;;;;;;;23.90;8.15;;;;;;;;;;6246778;22;20227;-92
2022/07/11 06:50:14;;;;;;;24.70;8.55;;;;;;;;;;6246223;23;20164;-91
2022/07/11 06:53:06;;;;;;;26.48;9.05;;;;;;;;;;6247682;23;20192;-91
2022/07/11 07:01:23;;;;;;;17.88;7.25;;;;;;;;;;6273009;22;20179;-89
2022/07/11 07:06:45;;;;;;;22.15;7.60;;;;;;;;;;6261567;22;20164;-90
2022/07/11 07:12:09;;;;;;;18.40;6.75;;;;;;;;;;6276762;22;20270;-90
2022/07/11 07:15:05;;;;;;;16.98;6.60;;;;;;;;;;6277756;22;20168;-90
2022/07/11 07:17:43;;;;;;;14.65;6.43;;;;;;;;;;6276874;22;20191;-92
2022/07/11 07:22:54;;;;;;;17.52;6.20;;;;;;;;;;6276930;22;20170;-92
2022/07/11 07:25:23;;;;;;;15.32;6.28;;;;;;;;;;6277345;22;20226;-92
2022/07/11 07:27:54;;;;;;;17.48;6.50;;;;;;;;;;6277010;22;20218;-92
2022/07/11 07:30:28;;;;;;;14.90;6.28;;;;;;;;;;6276649;22;20222;-91
2022/07/11 07:33:00;;;;;;;11.82;5.55;;;;;;;;;;6277531;22;20191;-91
2022/07/11 07:35:43;;;;;;;13.70;5.65;;;;;;;;;;6277571;22;20178;-92
2022/07/11 07:38:14;;;;;;;15.85;6.38;;;;;;;;;;6276105;22;20198;-90
2022/07/11 07:41:06;;;;;;;12.43;5.35;;;;;;;;;;6278202;22;20170;-90
2022/07/11 07:43:36;;;;;;;10.90;5.35;;;;;;;;;;6275936;22;20247;-91
2022/07/11 07:46:04;;;;;;;13.60;5.10;;;;;;;;;;6276585;22;20171;-91
2022/07/11 07:48:31;;;;;;;14.27;5.57;;;;;;;;;;6276373;22;20212;-91
2022/07/11 07:50:59;;;;;;;13.68;5.00;;;;;;;;;;6276450;22;20246;-91
2022/07/11 07:53:30;;;;;;;13.10;5.15;;;;;;;;;;6275104;22;20187;-90
2022/07/11 07:56:00;;;;;;;12.20;4.90;;;;;;;;;;6274819;22;20239;-91
2022/07/11 07:58:38;;;;;;;10.63;4.80;;;;;;;;;;6275389;22;20199;-91
2022/07/11 08:04:05;;;;;;;10.73;4.63;;;;;;;;;;6275929;22;20194;-91
2022/07/11 08:06:32;;;;;;;9.20;4.47;;;;;;;;;;6274892;22;20172;-91
2022/07/11 08:09:12;;;;;;;11.70;4.60;;;;;;;;;;6275157;22;20211;-91
2022/07/11 08:11:39;;;;;;;9.30;4.00;;;;;;;;;;6275831;22;20176;-91
2022/07/11 08:14:15;;;;;;;9.25;4.00;;;;;;;;;;6275384;22;20179;-91
2022/07/11 10:58:00;;;;;;;5.15;1.90;;;;;;;;;;6223807;22;20226;-91
2022/07/11 11:00:29;;;;;;;2.67;1.50;;;;;;;;;;6305960;22;20221;-89
2022/07/11 11:03:07;;;;;;;2.08;1.73;;;;;;;;;;6306165;22;20182;-88
2022/07/11 11:05:47;;;;;;;2.35;1.65;;;;;;;;;;6306024;22;20202;-90
2022/07/11 11:08:37;;;;;;;2.60;1.50;;;;;;;;;;6306542;22;20171;-90
2022/07/11 11:11:23;;;;;;;2.78;1.35;;;;;;;;;;6302777;22;20253;-90
2022/07/11 11:14:12;;;;;;;2.03;1.63;;;;;;;;;;6306281;22;20191;-89
2022/07/11 11:16:41;;;;;;;2.65;1.70;;;;;;;;;;6304439;22;20240;-88
2022/07/11 11:19:30;;;;;;;2.78;1.40;;;;;;;;;;6305687;22;20168;-91
2022/07/11 11:22:02;;;;;;;1.55;1.45;;;;;;;;;;6305717;22;20221;-88
2022/07/11 11:24:29;;;;;;;2.78;1.60;;;;;;;;;;6306128;22;20246;-90
2022/07/11 11:27:01;;;;;;;2.35;1.70;;;;;;;;;;6304823;22;20216;-89
2022/07/11 11:29:30;;;;;;;2.28;1.60;;;;;;;;;;6304640;22;20195;-88
2022/07/11 11:32:00;;;;;;;3.15;1.65;;;;;;;;;;6305759;22;20716;-90
2022/07/11 11:34:38;;;;;;;1.60;1.50;;;;;;;;;;6306079;22;20171;-87
2022/07/11 11:37:09;;;;;;;2.60;1.67;;;;;;;;;;6307051;22;20152;-91
2022/07/11 11:39:38;;;;;;;1.90;1.65;;;;;;;;;;6307079;22;20191;-90
2022/07/11 11:42:15;;;;;;;2.55;2.17;;;;;;;;;;6306911;22;20251;-90
2022/07/11 11:44:53;;;;;;;1.88;1.50;;;;;;;;;;6307171;22;20163;-89
2022/07/11 11:47:22;;;;;;;2.25;1.70;;;;;;;;;;6307181;22;20584;-90
2022/07/11 11:49:56;;;;;;;2.58;1.85;;;;;;;;;;6306911;22;20187;-90
2022/07/11 11:52:24;;;;;;;2.05;1.63;;;;;;;;;;6307698;22;20212;-88
2022/07/11 11:54:55;;;;;;;1.70;1.38;;;;;;;;;;6313482;22;20171;-90
2022/07/11 11:57:23;;;;;;;3.50;1.50;;;;;;;;;;6316365;22;20163;-89
2022/07/11 11:59:53;;;;;;;4.20;1.60;;;;;;;;;;6316804;22;20195;-89
2022/07/11 12:02:26;;;;;;;2.75;1.70;;;;;;;;;;6319312;22;20229;-88
2022/07/11 12:04:56;;;;;;;1.80;1.63;;;;;;;;;;6312740;22;20681;-89
2022/07/11 12:07:28;;;;;;;2.28;1.70;;;;;;;;;;6309093;22;20163;-89
2022/07/11 12:09:56;;;;;;;2.00;1.42;;;;;;;;;;6309655;22;20274;-89
2022/07/11 12:12:47;;;;;;;1.70;1.50;;;;;;;;;;6309720;22;20206;-90
2022/07/11 12:15:34;;;;;;;2.33;1.70;;;;;;;;;;6308830;22;20250;-90
2022/07/11 12:18:06;;;;;;;1.95;1.60;;;;;;;;;;6308400;22;20167;-90
2022/07/11 12:20:38;;;;;;;2.40;1.50;;;;;;;;;;6308551;22;20214;-90
2022/07/11 12:23:06;;;;;;;1.70;1.60;;;;;;;;;;6308325;22;20163;-90
2022/07/11 12:25:34;;;;;;;2.58;1.70;;;;;;;;;;6308251;22;20186;-88
2022/07/11 12:28:01;;;;;;;1.50;1.30;;;;;;;;;;6308056;22;20231;-90
2022/07/11 12:30:28;;;;;;;2.35;1.60;;;;;;;;;;6308173;22;20192;-90
2022/07/11 12:33:13;;;;;;;1.80;1.70;;;;;;;;;;6309139;22;20191;-89
2022/07/11 12:35:57;;;;;;;2.03;1.60;;;;;;;;;;6310340;22;20344;-90
2022/07/11 12:38:27;;;;;;;2.22;1.70;;;;;;;;;;6310406;22;20232;-91
2022/07/11 12:41:02;;;;;;;2.05;1.60;;;;;;;;;;6310520;22;20201;-89
2022/07/11 12:46:40;;;;;;;1.83;1.67;;;;;;;;;;6308456;22;20216;-92
2022/07/11 13:17:47;;;;;;;1.88;1.77;;;;;;;;;;6322301;22;20183;-94
2022/07/11 13:34:23;;;;;;;4.47;1.83;;;;;;;;;;6253364;23;20215;-92
2022/07/11 17:24:57;;;;;;;;;;;;;;;;;;;;;
2022/07/11 17:30:32;;;;;;;2.75;1.70;;;;;;;;;;6272170;22;20286;-90
2022/07/11 17:33:11;;;;;;;1.67;1.58;;;;;;;;;;6307484;22;20195;-89
2022/07/11 17:39:10;;;;;;;2.08;1.77;;;;;;;;;;6252702;22;20493;-92
2022/07/11 17:44:37;;;;;;;3.03;1.80;;;;;;;;;;6304817;22;20209;-91
2022/07/11 17:50:16;;;;;;;2.25;2.00;;;;;;;;;;6303129;22;20195;-90
2022/07/11 17:56:03;;;;;;;2.65;2.05;;;;;;;;;;6244883;22;20175;-92
2022/07/11 17:58:35;;;;;;;1.80;1.70;;;;;;;;;;6307043;22;20159;-89
2022/07/11 18:01:32;;;;;;;;;;;;;;;;;;;;;
2022/07/11 18:14:45;;;;;;;2.90;2.08;;;;;;;;;;6306012;22;20524;-89
2022/07/11 18:17:30;;;;;;;2.55;2.35;;;;;;;;;;6306050;22;20245;-89
2022/07/11 18:20:10;;;;;;;1.92;1.83;;;;;;;;;;6298028;22;20202;-87
2022/07/11 18:22:51;;;;;;;2.40;2.20;;;;;;;;;;6306163;22;20246;-89
2022/07/11 18:25:20;;;;;;;2.45;2.00;;;;;;;;;;6306668;22;20181;-89
2022/07/11 18:27:51;;;;;;;2.28;2.03;;;;;;;;;;6306112;22;20223;-88
2022/07/11 18:30:36;;;;;;;2.08;1.98;;;;;;;;;;6306364;22;20266;-88
2022/07/11 18:41:11;;;;;;;2.35;2.20;;;;;;;;;;6305400;22;20246;-88
2022/07/11 18:41:36;;;;;;;1.90;1.80;;;;;;;;;;6306248;22;20223;-88
2022/07/11 18:44:24;;;;;;;2.42;2.17;;;;;;;;;;6306286;22;20238;-88
2022/07/11 18:47:04;;;;;;;2.08;1.98;;;;;;;;;;6305727;22;20256;-89
2022/07/11 18:49:53;;;;;;;2.03;1.90;;;;;;;;;;6306164;22;20175;-88
2022/07/11 18:52:44;;;;;;;2.13;2.03;;;;;;;;;;6305809;22;20258;-89
2022/07/11 18:55:19;;;;;;;8.73;2.50;;;;;;;;;;6305907;22;20183;-90
2022/07/11 19:15:12;;;;;;;4.32;2.25;;;;;;;;;;6304782;22;20263;-91
2022/07/11 19:17:48;;;;;;;4.80;2.25;;;;;;;;;;6306147;22;20159;-91
2022/07/11 20:10:21;;;;;;;32.70;17.35;;;;;;;;;;6289710;22;20274;-88
2022/07/11 20:13:03;;;;;;;22.35;12.63;;;;;;;;;;6305551;22;20171;-90
2022/07/11 20:15:49;;;;;;;11.85;8.20;;;;;;;;;;6303007;22;20191;-90
2022/07/11 20:18:24;;;;;;;13.18;7.28;;;;;;;;;;6305246;22;20206;-90
